sensor_id;sensor_type;location;lat;lon;timestamp;P1;durP1;ratioP1;P2;durP2;ratioP2
562;SDS011;266;49.514;8.294;2023-12-20T00:01:21;0.77;;;0.77;;
562;SDS011;266;49.514;8.294;2023-12-20T00:03:49;0.90;;;0.90;;
562;SDS011;266;49.514;8.294;2023-12-20T00:06:19;0.73;;;0.73;;
562;SDS011;266;49.514;8.294;2023-12-20T00:08:47;0.90;;;0.90;;
562;SDS011;266;49.514;8.294;2023-12-20T00:11:15;1.20;;;1.10;;
562;SDS011;266;49.514;8.294;2023-12-20T00:13:42;0.80;;;0.80;;
562;SDS011;266;49.514;8.294;2023-12-20T00:16:14;1.30;;;0.90;;
562;SDS011;266;49.514;8.294;2023-12-20T00:18:42;1.00;;;0.90;;
562;SDS011;266;49.514;8.294;2023-12-20T00:21:10;0.90;;;0.90;;
562;SDS011;266;49.514;8.294;2023-12-20T00:23:39;0.90;;;0.90;;
562;SDS011;266;49.514;8.294;2023-12-20T00:26:07;1.00;;;1.00;;
562;SDS011;266;49.514;8.294;2023-12-20T00:28:35;1.10;;;1.00;;
562;SDS011;266;49.514;8.294;2023-12-20T00:31:04;1.20;;;1.10;;
562;SDS011;266;49.514;8.294;2023-12-20T00:33:32;0.90;;;0.90;;
562;SDS011;266;49.514;8.294;2023-12-20T00:36:00;1.20;;;1.10;;
562;SDS011;266;49.514;8.294;2023-12-20T00:38:28;1.10;;;1.00;;
562;SDS011;266;49.514;8.294;2023-12-20T00:40:58;0.93;;;0.80;;
562;SDS011;266;49.514;8.294;2023-12-20T00:43:26;2.20;;;1.27;;
562;SDS011;266;49.514;8.294;2023-12-20T00:45:54;1.97;;;1.23;;
562;SDS011;266;49.514;8.294;2023-12-20T00:48:22;1.20;;;1.10;;
562;SDS011;266;49.514;8.294;2023-12-20T00:50:50;1.20;;;1.10;;
562;SDS011;266;49.514;8.294;2023-12-20T00:53:18;0.80;;;0.80;;
562;SDS011;266;49.514;8.294;2023-12-20T00:55:46;1.30;;;0.83;;
562;SDS011;266;49.514;8.294;2023-12-20T00:58:15;1.00;;;0.90;;
562;SDS011;266;49.514;8.294;2023-12-20T01:00:43;2.90;;;1.17;;
562;SDS011;266;49.514;8.294;2023-12-20T01:03:10;0.93;;;0.80;;
562;SDS011;266;49.514;8.294;2023-12-20T01:05:38;1.07;;;1.00;;
562;SDS011;266;49.514;8.294;2023-12-20T01:08:06;0.80;;;0.80;;
562;SDS011;266;49.514;8.294;2023-12-20T01:10:34;0.80;;;0.80;;
562;SDS011;266;49.514;8.294;2023-12-20T01:13:02;1.03;;;0.87;;
562;SDS011;266;49.514;8.294;2023-12-20T01:15:32;0.90;;;0.90;;
562;SDS011;266;49.514;8.294;2023-12-20T01:18:00;1.50;;;1.10;;
562;SDS011;266;49.514;8.294;2023-12-20T01:20:28;0.90;;;0.90;;
562;SDS011;266;49.514;8.294;2023-12-20T01:22:56;1.73;;;1.03;;
562;SDS011;266;49.514;8.294;2023-12-20T01:25:24;0.90;;;0.90;;
562;SDS011;266;49.514;8.294;2023-12-20T01:27:52;1.83;;;0.90;;
562;SDS011;266;49.514;8.294;2023-12-20T01:30:20;1.10;;;1.00;;
562;SDS011;266;49.514;8.294;2023-12-20T01:32:49;1.00;;;0.90;;
562;SDS011;266;49.514;8.294;2023-12-20T01:35:17;0.80;;;0.80;;
562;SDS011;266;49.514;8.294;2023-12-20T01:37:45;0.80;;;0.80;;
562;SDS011;266;49.514;8.294;2023-12-20T01:40:14;0.93;;;0.80;;
562;SDS011;266;49.514;8.294;2023-12-20T01:42:42;0.87;;;0.87;;
562;SDS011;266;49.514;8.294;2023-12-20T01:45:10;1.00;;;0.90;;
562;SDS011;266;49.514;8.294;2023-12-20T01:47:38;1.10;;;0.97;;
562;SDS011;266;49.514;8.294;2023-12-20T01:50:08;0.90;;;0.90;;
562;SDS011;266;49.514;8.294;2023-12-20T01:52:36;1.30;;;1.20;;
562;SDS011;266;49.514;8.294;2023-12-20T01:55:04;0.80;;;0.80;;
562;SDS011;266;49.514;8.294;2023-12-20T01:57:39;0.97;;;0.90;;
562;SDS011;266;49.514;8.294;2023-12-20T02:00:09;0.97;;;0.90;;
562;SDS011;266;49.514;8.294;2023-12-20T02:02:39;0.97;;;0.90;;
562;SDS011;266;49.514;8.294;2023-12-20T02:05:10;0.90;;;0.90;;
562;SDS011;266;49.514;8.294;2023-12-20T02:07:39;1.63;;;1.53;;
562;SDS011;266;49.514;8.294;2023-12-20T02:10:08;0.80;;;0.80;;
562;SDS011;266;49.514;8.294;2023-12-20T02:12:36;0.80;;;0.80;;
562;SDS011;266;49.514;8.294;2023-12-20T02:15:04;1.00;;;1.00;;
562;SDS011;266;49.514;8.294;2023-12-20T02:17:33;9.17;;;1.43;;
562;SDS011;266;49.514;8.294;2023-12-20T02:20:02;0.90;;;0.70;;
562;SDS011;266;49.514;8.294;2023-12-20T02:22:33;1.80;;;0.80;;
562;SDS011;266;49.514;8.294;2023-12-20T02:25:01;0.80;;;0.80;;
562;SDS011;266;49.514;8.294;2023-12-20T02:27:29;2.30;;;1.20;;
562;SDS011;266;49.514;8.294;2023-12-20T02:29:57;0.90;;;0.90;;
562;SDS011;266;49.514;8.294;2023-12-20T02:32:25;0.80;;;0.80;;
562;SDS011;266;49.514;8.294;2023-12-20T02:34:54;0.87;;;0.87;;
562;SDS011;266;49.514;8.294;2023-12-20T02:37:23;0.80;;;0.77;;
562;SDS011;266;49.514;8.294;2023-12-20T02:39:52;1.50;;;1.10;;
562;SDS011;266;49.514;8.294;2023-12-20T02:42:21;1.00;;;0.80;;
562;SDS011;266;49.514;8.294;2023-12-20T02:44:48;1.23;;;0.87;;
562;SDS011;266;49.514;8.294;2023-12-20T02:47:16;0.87;;;0.87;;
562;SDS011;266;49.514;8.294;2023-12-20T02:49:44;0.90;;;0.90;;
562;SDS011;266;49.514;8.294;2023-12-20T02:52:12;0.97;;;0.87;;
562;SDS011;266;49.514;8.294;2023-12-20T02:54:40;0.80;;;0.80;;
562;SDS011;266;49.514;8.294;2023-12-20T02:57:10;1.60;;;1.00;;
562;SDS011;266;49.514;8.294;2023-12-20T02:59:38;1.10;;;1.00;;
562;SDS011;266;49.514;8.294;2023-12-20T03:02:06;1.10;;;0.90;;
562;SDS011;266;49.514;8.294;2023-12-20T03:04:34;1.40;;;0.90;;
562;SDS011;266;49.514;8.294;2023-12-20T03:07:03;0.83;;;0.83;;
562;SDS011;266;49.514;8.294;2023-12-20T03:09:31;1.10;;;1.00;;
562;SDS011;266;49.514;8.294;2023-12-20T03:12:20;1.63;;;0.90;;
562;SDS011;266;49.514;8.294;2023-12-20T03:14:48;0.80;;;0.80;;
562;SDS011;266;49.514;8.294;2023-12-20T03:17:16;1.03;;;1.00;;
562;SDS011;266;49.514;8.294;2023-12-20T03:19:45;0.90;;;0.90;;
562;SDS011;266;49.514;8.294;2023-12-20T03:22:13;0.80;;;0.80;;
562;SDS011;266;49.514;8.294;2023-12-20T03:24:40;0.83;;;0.83;;
562;SDS011;266;49.514;8.294;2023-12-20T03:27:08;0.87;;;0.87;;
562;SDS011;266;49.514;8.294;2023-12-20T03:29:38;0.87;;;0.87;;
562;SDS011;266;49.514;8.294;2023-12-20T03:32:06;1.10;;;1.00;;
562;SDS011;266;49.514;8.294;2023-12-20T03:34:35;0.80;;;0.80;;
562;SDS011;266;49.514;8.294;2023-12-20T03:37:03;0.90;;;0.90;;
562;SDS011;266;49.514;8.294;2023-12-20T03:39:31;1.10;;;1.00;;
562;SDS011;266;49.514;8.294;2023-12-20T03:41:59;0.83;;;0.80;;
562;SDS011;266;49.514;8.294;2023-12-20T03:44:27;1.37;;;1.27;;
562;SDS011;266;49.514;8.294;2023-12-20T03:46:56;1.20;;;1.10;;
562;SDS011;266;49.514;8.294;2023-12-20T03:49:24;1.30;;;1.20;;
562;SDS011;266;49.514;8.294;2023-12-20T03:51:52;0.80;;;0.80;;
562;SDS011;266;49.514;8.294;2023-12-20T03:54:20;1.10;;;0.97;;
562;SDS011;266;49.514;8.294;2023-12-20T03:56:48;1.10;;;1.00;;
562;SDS011;266;49.514;8.294;2023-12-20T03:59:16;1.43;;;1.30;;
562;SDS011;266;49.514;8.294;2023-12-20T04:01:45;1.20;;;1.10;;
562;SDS011;266;49.514;8.294;2023-12-20T04:04:14;1.47;;;1.37;;
562;SDS011;266;49.514;8.294;2023-12-20T04:06:42;1.40;;;1.30;;
562;SDS011;266;49.514;8.294;2023-12-20T04:09:10;1.30;;;1.20;;
562;SDS011;266;49.514;8.294;2023-12-20T04:11:39;1.23;;;1.10;;
562;SDS011;266;49.514;8.294;2023-12-20T04:14:07;1.60;;;1.50;;
562;SDS011;266;49.514;8.294;2023-12-20T04:16:35;2.00;;;1.90;;
562;SDS011;266;49.514;8.294;2023-12-20T04:19:03;1.40;;;1.30;;
562;SDS011;266;49.514;8.294;2023-12-20T04:21:32;1.53;;;1.43;;
562;SDS011;266;49.514;8.294;2023-12-20T04:24:00;1.67;;;1.40;;
562;SDS011;266;49.514;8.294;2023-12-20T04:26:28;1.63;;;1.53;;
562;SDS011;266;49.514;8.294;2023-12-20T04:28:56;1.20;;;1.10;;
562;SDS011;266;49.514;8.294;2023-12-20T04:31:24;1.60;;;1.40;;
562;SDS011;266;49.514;8.294;2023-12-20T04:33:52;1.70;;;1.60;;
562;SDS011;266;49.514;8.294;2023-12-20T04:36:20;1.83;;;1.73;;
562;SDS011;266;49.514;8.294;2023-12-20T04:38:49;1.57;;;1.47;;
562;SDS011;266;49.514;8.294;2023-12-20T04:41:17;1.57;;;1.47;;
562;SDS011;266;49.514;8.294;2023-12-20T04:43:45;1.77;;;1.67;;
562;SDS011;266;49.514;8.294;2023-12-20T04:46:13;3.53;;;2.03;;
562;SDS011;266;49.514;8.294;2023-12-20T04:48:41;1.90;;;1.70;;
562;SDS011;266;49.514;8.294;2023-12-20T04:51:09;2.30;;;2.10;;
562;SDS011;266;49.514;8.294;2023-12-20T04:53:37;2.17;;;1.80;;
562;SDS011;266;49.514;8.294;2023-12-20T04:56:07;2.00;;;1.87;;
562;SDS011;266;49.514;8.294;2023-12-20T04:58:35;2.83;;;2.63;;
562;SDS011;266;49.514;8.294;2023-12-20T05:01:03;3.17;;;2.87;;
562;SDS011;266;49.514;8.294;2023-12-20T05:03:32;2.30;;;2.10;;
562;SDS011;266;49.514;8.294;2023-12-20T05:06:00;2.40;;;2.20;;
562;SDS011;266;49.514;8.294;2023-12-20T05:08:28;2.13;;;1.97;;
562;SDS011;266;49.514;8.294;2023-12-20T05:10:56;2.50;;;2.33;;
562;SDS011;266;49.514;8.294;2023-12-20T05:13:26;1.90;;;1.77;;
562;SDS011;266;49.514;8.294;2023-12-20T05:16:07;3.13;;;2.50;;
562;SDS011;266;49.514;8.294;2023-12-20T05:18:36;2.40;;;2.20;;
562;SDS011;266;49.514;8.294;2023-12-20T05:21:04;2.17;;;2.03;;
562;SDS011;266;49.514;8.294;2023-12-20T05:23:32;2.03;;;1.90;;
562;SDS011;266;49.514;8.294;2023-12-20T05:26:00;2.63;;;2.43;;
562;SDS011;266;49.514;8.294;2023-12-20T05:28:29;2.60;;;2.40;;
562;SDS011;266;49.514;8.294;2023-12-20T05:30:57;2.07;;;1.87;;
562;SDS011;266;49.514;8.294;2023-12-20T05:33:25;2.80;;;2.60;;
562;SDS011;266;49.514;8.294;2023-12-20T05:35:53;2.50;;;2.30;;
562;SDS011;266;49.514;8.294;2023-12-20T05:38:21;2.90;;;2.60;;
562;SDS011;266;49.514;8.294;2023-12-20T05:40:49;2.43;;;2.20;;
562;SDS011;266;49.514;8.294;2023-12-20T05:43:20;3.07;;;2.87;;
562;SDS011;266;49.514;8.294;2023-12-20T05:45:50;3.00;;;2.80;;
562;SDS011;266;49.514;8.294;2023-12-20T05:48:20;2.80;;;2.60;;
562;SDS011;266;49.514;8.294;2023-12-20T05:50:49;2.97;;;2.63;;
562;SDS011;266;49.514;8.294;2023-12-20T05:53:16;3.00;;;2.80;;
562;SDS011;266;49.514;8.294;2023-12-20T05:55:44;2.80;;;2.60;;
562;SDS011;266;49.514;8.294;2023-12-20T05:58:12;3.70;;;3.40;;
562;SDS011;266;49.514;8.294;2023-12-20T06:00:40;2.93;;;2.60;;
562;SDS011;266;49.514;8.294;2023-12-20T06:03:10;3.53;;;2.90;;
562;SDS011;266;49.514;8.294;2023-12-20T06:05:37;3.00;;;2.80;;
562;SDS011;266;49.514;8.294;2023-12-20T06:08:06;2.80;;;2.60;;
562;SDS011;266;49.514;8.294;2023-12-20T06:10:34;3.13;;;2.67;;
562;SDS011;266;49.514;8.294;2023-12-20T06:13:02;3.13;;;2.60;;
562;SDS011;266;49.514;8.294;2023-12-20T06:15:30;3.57;;;2.60;;
562;SDS011;266;49.514;8.294;2023-12-20T06:17:58;2.50;;;2.30;;
562;SDS011;266;49.514;8.294;2023-12-20T06:20:28;3.57;;;2.50;;
562;SDS011;266;49.514;8.294;2023-12-20T06:22:56;2.73;;;2.53;;
562;SDS011;266;49.514;8.294;2023-12-20T06:25:24;3.70;;;2.50;;
562;SDS011;266;49.514;8.294;2023-12-20T06:27:52;1.87;;;1.77;;
562;SDS011;266;49.514;8.294;2023-12-20T06:30:20;3.07;;;2.87;;
562;SDS011;266;49.514;8.294;2023-12-20T06:32:49;2.23;;;2.03;;
562;SDS011;266;49.514;8.294;2023-12-20T06:35:17;2.37;;;2.17;;
562;SDS011;266;49.514;8.294;2023-12-20T06:37:46;4.30;;;2.43;;
562;SDS011;266;49.514;8.294;2023-12-20T06:40:14;2.47;;;2.27;;
562;SDS011;266;49.514;8.294;2023-12-20T06:42:44;2.80;;;2.60;;
562;SDS011;266;49.514;8.294;2023-12-20T06:45:30;2.10;;;1.90;;
562;SDS011;266;49.514;8.294;2023-12-20T06:47:58;2.90;;;2.40;;
562;SDS011;266;49.514;8.294;2023-12-20T06:50:26;2.57;;;1.70;;
562;SDS011;266;49.514;8.294;2023-12-20T06:52:56;2.33;;;2.13;;
562;SDS011;266;49.514;8.294;2023-12-20T06:55:24;6.07;;;2.60;;
562;SDS011;266;49.514;8.294;2023-12-20T06:57:52;4.03;;;3.70;;
562;SDS011;266;49.514;8.294;2023-12-20T07:00:20;3.30;;;3.00;;
562;SDS011;266;49.514;8.294;2023-12-20T07:02:48;4.93;;;2.57;;
562;SDS011;266;49.514;8.294;2023-12-20T07:05:16;3.73;;;3.30;;
562;SDS011;266;49.514;8.294;2023-12-20T07:07:46;1.80;;;1.70;;
562;SDS011;266;49.514;8.294;2023-12-20T07:10:17;2.93;;;1.47;;
562;SDS011;266;49.514;8.294;2023-12-20T07:12:45;5.20;;;4.70;;
562;SDS011;266;49.514;8.294;2023-12-20T07:15:15;3.97;;;3.57;;
562;SDS011;266;49.514;8.294;2023-12-20T07:17:42;3.50;;;3.07;;
562;SDS011;266;49.514;8.294;2023-12-20T07:20:11;3.80;;;2.70;;
562;SDS011;266;49.514;8.294;2023-12-20T07:22:39;2.63;;;2.40;;
562;SDS011;266;49.514;8.294;2023-12-20T07:25:07;2.00;;;1.90;;
562;SDS011;266;49.514;8.294;2023-12-20T07:27:38;2.13;;;2.00;;
562;SDS011;266;49.514;8.294;2023-12-20T07:30:10;1.70;;;1.60;;
562;SDS011;266;49.514;8.294;2023-12-20T07:32:39;2.37;;;1.40;;
562;SDS011;266;49.514;8.294;2023-12-20T07:35:07;1.43;;;1.33;;
562;SDS011;266;49.514;8.294;2023-12-20T07:37:35;2.37;;;1.80;;
562;SDS011;266;49.514;8.294;2023-12-20T07:40:03;1.53;;;1.40;;
562;SDS011;266;49.514;8.294;2023-12-20T07:42:32;3.87;;;2.10;;
562;SDS011;266;49.514;8.294;2023-12-20T07:45:01;2.43;;;2.23;;
562;SDS011;266;49.514;8.294;2023-12-20T07:47:29;2.17;;;2.07;;
562;SDS011;266;49.514;8.294;2023-12-20T07:49:57;2.60;;;2.23;;
562;SDS011;266;49.514;8.294;2023-12-20T07:52:26;2.03;;;1.93;;
562;SDS011;266;49.514;8.294;2023-12-20T07:54:53;4.30;;;2.13;;
562;SDS011;266;49.514;8.294;2023-12-20T07:57:23;2.20;;;1.67;;
562;SDS011;266;49.514;8.294;2023-12-20T07:59:51;1.47;;;1.23;;
562;SDS011;266;49.514;8.294;2023-12-20T08:02:20;1.63;;;1.53;;
562;SDS011;266;49.514;8.294;2023-12-20T08:04:48;1.80;;;1.33;;
562;SDS011;266;49.514;8.294;2023-12-20T08:07:18;1.60;;;1.50;;
562;SDS011;266;49.514;8.294;2023-12-20T08:09:45;1.37;;;1.27;;
562;SDS011;266;49.514;8.294;2023-12-20T08:12:13;1.77;;;1.67;;
562;SDS011;266;49.514;8.294;2023-12-20T08:14:43;2.43;;;1.67;;
562;SDS011;266;49.514;8.294;2023-12-20T08:17:11;2.30;;;1.90;;
562;SDS011;266;49.514;8.294;2023-12-20T08:19:40;1.53;;;1.43;;
562;SDS011;266;49.514;8.294;2023-12-20T08:22:08;2.00;;;1.90;;
562;SDS011;266;49.514;8.294;2023-12-20T08:24:36;3.23;;;1.60;;
562;SDS011;266;49.514;8.294;2023-12-20T08:27:04;2.50;;;1.50;;
562;SDS011;266;49.514;8.294;2023-12-20T08:29:32;2.73;;;1.90;;
562;SDS011;266;49.514;8.294;2023-12-20T08:32:00;1.80;;;1.53;;
562;SDS011;266;49.514;8.294;2023-12-20T08:34:28;2.00;;;1.87;;
562;SDS011;266;49.514;8.294;2023-12-20T08:36:58;1.60;;;1.50;;
562;SDS011;266;49.514;8.294;2023-12-20T08:39:26;1.70;;;1.60;;
562;SDS011;266;49.514;8.294;2023-12-20T08:41:54;1.73;;;1.63;;
562;SDS011;266;49.514;8.294;2023-12-20T08:44:22;1.40;;;1.30;;
562;SDS011;266;49.514;8.294;2023-12-20T08:46:49;3.33;;;2.57;;
562;SDS011;266;49.514;8.294;2023-12-20T08:49:17;3.90;;;3.43;;
562;SDS011;266;49.514;8.294;2023-12-20T08:51:46;1.77;;;1.60;;
562;SDS011;266;49.514;8.294;2023-12-20T08:54:15;4.30;;;1.93;;
562;SDS011;266;49.514;8.294;2023-12-20T08:56:45;10.20;;;1.77;;
562;SDS011;266;49.514;8.294;2023-12-20T08:59:13;4.03;;;1.80;;
562;SDS011;266;49.514;8.294;2023-12-20T09:01:41;2.60;;;1.80;;
562;SDS011;266;49.514;8.294;2023-12-20T09:04:09;5.80;;;1.73;;
562;SDS011;266;49.514;8.294;2023-12-20T09:06:37;2.93;;;1.80;;
562;SDS011;266;49.514;8.294;2023-12-20T09:09:05;2.00;;;1.90;;
562;SDS011;266;49.514;8.294;2023-12-20T09:11:38;7.63;;;2.90;;
562;SDS011;266;49.514;8.294;2023-12-20T09:14:06;3.10;;;1.70;;
562;SDS011;266;49.514;8.294;2023-12-20T09:16:34;2.47;;;1.83;;
562;SDS011;266;49.514;8.294;2023-12-20T09:19:01;4.07;;;3.00;;
562;SDS011;266;49.514;8.294;2023-12-20T09:21:30;7.30;;;2.63;;
562;SDS011;266;49.514;8.294;2023-12-20T09:23:58;9.83;;;2.10;;
562;SDS011;266;49.514;8.294;2023-12-20T09:26:26;20.43;;;4.03;;
562;SDS011;266;49.514;8.294;2023-12-20T09:28:55;7.73;;;2.67;;
562;SDS011;266;49.514;8.294;2023-12-20T09:31:23;1.60;;;1.50;;
562;SDS011;266;49.514;8.294;2023-12-20T09:33:51;11.03;;;3.20;;
562;SDS011;266;49.514;8.294;2023-12-20T09:36:19;10.73;;;2.33;;
562;SDS011;266;49.514;8.294;2023-12-20T09:38:47;3.50;;;2.07;;
562;SDS011;266;49.514;8.294;2023-12-20T09:41:15;4.00;;;2.70;;
562;SDS011;266;49.514;8.294;2023-12-20T09:43:43;3.13;;;2.10;;
562;SDS011;266;49.514;8.294;2023-12-20T09:46:12;10.43;;;2.40;;
562;SDS011;266;49.514;8.294;2023-12-20T09:48:45;1.83;;;1.63;;
562;SDS011;266;49.514;8.294;2023-12-20T09:51:14;9.87;;;2.97;;
562;SDS011;266;49.514;8.294;2023-12-20T09:53:42;5.60;;;3.40;;
562;SDS011;266;49.514;8.294;2023-12-20T09:56:11;5.23;;;3.73;;
562;SDS011;266;49.514;8.294;2023-12-20T09:58:40;5.30;;;3.43;;
562;SDS011;266;49.514;8.294;2023-12-20T10:01:08;3.20;;;2.40;;
562;SDS011;266;49.514;8.294;2023-12-20T10:03:38;2.10;;;2.00;;
562;SDS011;266;49.514;8.294;2023-12-20T10:06:08;3.53;;;2.27;;
562;SDS011;266;49.514;8.294;2023-12-20T10:08:36;1.83;;;1.50;;
562;SDS011;266;49.514;8.294;2023-12-20T10:11:04;3.13;;;1.73;;
562;SDS011;266;49.514;8.294;2023-12-20T10:13:32;1.73;;;1.20;;
562;SDS011;266;49.514;8.294;2023-12-20T10:16:00;6.17;;;2.93;;
562;SDS011;266;49.514;8.294;2023-12-20T10:18:29;3.43;;;2.20;;
562;SDS011;266;49.514;8.294;2023-12-20T10:21:06;4.27;;;2.90;;
562;SDS011;266;49.514;8.294;2023-12-20T10:23:36;6.20;;;2.57;;
562;SDS011;266;49.514;8.294;2023-12-20T10:26:05;5.27;;;3.67;;
562;SDS011;266;49.514;8.294;2023-12-20T10:28:33;2.10;;;1.80;;
562;SDS011;266;49.514;8.294;2023-12-20T10:31:02;2.77;;;2.33;;
562;SDS011;266;49.514;8.294;2023-12-20T10:33:30;4.93;;;1.40;;
562;SDS011;266;49.514;8.294;2023-12-20T10:35:59;3.50;;;1.90;;
562;SDS011;266;49.514;8.294;2023-12-20T10:38:28;9.17;;;2.03;;
562;SDS011;266;49.514;8.294;2023-12-20T10:40:57;3.20;;;2.67;;
562;SDS011;266;49.514;8.294;2023-12-20T10:43:26;2.50;;;2.13;;
562;SDS011;266;49.514;8.294;2023-12-20T10:45:58;2.33;;;1.70;;
562;SDS011;266;49.514;8.294;2023-12-20T10:48:27;5.90;;;1.90;;
562;SDS011;266;49.514;8.294;2023-12-20T10:50:57;2.00;;;1.80;;
562;SDS011;266;49.514;8.294;2023-12-20T10:53:25;5.50;;;2.93;;
562;SDS011;266;49.514;8.294;2023-12-20T10:55:55;4.27;;;2.37;;
562;SDS011;266;49.514;8.294;2023-12-20T10:58:27;5.10;;;3.30;;
562;SDS011;266;49.514;8.294;2023-12-20T11:00:58;3.60;;;2.53;;
562;SDS011;266;49.514;8.294;2023-12-20T11:03:30;3.00;;;2.70;;
562;SDS011;266;49.514;8.294;2023-12-20T11:06:02;2.63;;;2.00;;
562;SDS011;266;49.514;8.294;2023-12-20T11:08:38;3.20;;;2.33;;
562;SDS011;266;49.514;8.294;2023-12-20T11:11:12;1.90;;;1.80;;
562;SDS011;266;49.514;8.294;2023-12-20T11:13:48;3.23;;;1.80;;
562;SDS011;266;49.514;8.294;2023-12-20T11:16:21;2.60;;;2.07;;
562;SDS011;266;49.514;8.294;2023-12-20T11:18:53;4.30;;;1.73;;
562;SDS011;266;49.514;8.294;2023-12-20T11:21:21;2.17;;;1.97;;
562;SDS011;266;49.514;8.294;2023-12-20T11:23:49;2.90;;;2.30;;
562;SDS011;266;49.514;8.294;2023-12-20T11:26:18;5.57;;;2.40;;
562;SDS011;266;49.514;8.294;2023-12-20T11:28:50;5.07;;;2.27;;
562;SDS011;266;49.514;8.294;2023-12-20T11:31:18;1.63;;;1.53;;
562;SDS011;266;49.514;8.294;2023-12-20T11:33:46;6.57;;;2.93;;
562;SDS011;266;49.514;8.294;2023-12-20T11:36:15;3.03;;;2.20;;
562;SDS011;266;49.514;8.294;2023-12-20T11:38:54;3.77;;;3.30;;
562;SDS011;266;49.514;8.294;2023-12-20T11:41:25;6.07;;;2.50;;
562;SDS011;266;49.514;8.294;2023-12-20T11:43:53;1.70;;;1.60;;
562;SDS011;266;49.514;8.294;2023-12-20T11:46:22;2.37;;;2.17;;
562;SDS011;266;49.514;8.294;2023-12-20T11:48:52;1.87;;;1.77;;
562;SDS011;266;49.514;8.294;2023-12-20T11:51:20;2.53;;;2.13;;
562;SDS011;266;49.514;8.294;2023-12-20T11:53:51;3.20;;;2.10;;
562;SDS011;266;49.514;8.294;2023-12-20T11:56:19;3.60;;;1.90;;
562;SDS011;266;49.514;8.294;2023-12-20T11:58:49;2.30;;;2.10;;
562;SDS011;266;49.514;8.294;2023-12-20T12:01:17;1.80;;;1.70;;
562;SDS011;266;49.514;8.294;2023-12-20T12:03:47;3.37;;;2.00;;
562;SDS011;266;49.514;8.294;2023-12-20T12:06:15;3.23;;;2.50;;
562;SDS011;266;49.514;8.294;2023-12-20T12:08:43;5.77;;;1.90;;
562;SDS011;266;49.514;8.294;2023-12-20T12:11:11;6.10;;;2.73;;
562;SDS011;266;49.514;8.294;2023-12-20T12:13:39;2.90;;;1.90;;
562;SDS011;266;49.514;8.294;2023-12-20T12:16:08;8.03;;;4.07;;
562;SDS011;266;49.514;8.294;2023-12-20T12:18:37;3.60;;;1.83;;
562;SDS011;266;49.514;8.294;2023-12-20T12:21:08;2.53;;;2.00;;
562;SDS011;266;49.514;8.294;2023-12-20T12:23:44;2.43;;;2.23;;
562;SDS011;266;49.514;8.294;2023-12-20T12:26:12;3.50;;;2.60;;
562;SDS011;266;49.514;8.294;2023-12-20T12:28:40;3.00;;;1.70;;
562;SDS011;266;49.514;8.294;2023-12-20T12:31:14;2.50;;;2.03;;
562;SDS011;266;49.514;8.294;2023-12-20T12:33:43;3.90;;;1.90;;
562;SDS011;266;49.514;8.294;2023-12-20T12:36:12;1.80;;;1.70;;
562;SDS011;266;49.514;8.294;2023-12-20T12:38:42;2.03;;;1.77;;
562;SDS011;266;49.514;8.294;2023-12-20T12:41:12;1.70;;;1.53;;
562;SDS011;266;49.514;8.294;2023-12-20T12:43:41;2.47;;;1.80;;
562;SDS011;266;49.514;8.294;2023-12-20T12:46:09;3.77;;;1.60;;
562;SDS011;266;49.514;8.294;2023-12-20T12:48:39;3.80;;;2.37;;
562;SDS011;266;49.514;8.294;2023-12-20T12:51:11;3.60;;;2.00;;
562;SDS011;266;49.514;8.294;2023-12-20T12:53:41;6.43;;;1.73;;
562;SDS011;266;49.514;8.294;2023-12-20T12:56:09;4.03;;;1.87;;
562;SDS011;266;49.514;8.294;2023-12-20T12:58:37;4.17;;;2.53;;
562;SDS011;266;49.514;8.294;2023-12-20T13:01:05;5.97;;;2.70;;
562;SDS011;266;49.514;8.294;2023-12-20T13:03:35;5.37;;;2.33;;
562;SDS011;266;49.514;8.294;2023-12-20T13:06:07;3.20;;;1.70;;
562;SDS011;266;49.514;8.294;2023-12-20T13:08:35;2.30;;;2.07;;
562;SDS011;266;49.514;8.294;2023-12-20T13:11:03;4.83;;;2.40;;
562;SDS011;266;49.514;8.294;2023-12-20T13:13:31;2.30;;;1.73;;
562;SDS011;266;49.514;8.294;2023-12-20T13:15:59;2.90;;;1.73;;
562;SDS011;266;49.514;8.294;2023-12-20T13:18:27;3.80;;;1.90;;
562;SDS011;266;49.514;8.294;2023-12-20T13:20:55;1.90;;;1.80;;
562;SDS011;266;49.514;8.294;2023-12-20T13:23:25;3.17;;;2.67;;
562;SDS011;266;49.514;8.294;2023-12-20T13:25:53;2.83;;;1.63;;
562;SDS011;266;49.514;8.294;2023-12-20T13:28:21;2.33;;;1.73;;
562;SDS011;266;49.514;8.294;2023-12-20T13:30:49;2.03;;;1.30;;
562;SDS011;266;49.514;8.294;2023-12-20T13:33:17;2.23;;;1.70;;
562;SDS011;266;49.514;8.294;2023-12-20T13:35:45;1.93;;;1.53;;
562;SDS011;266;49.514;8.294;2023-12-20T13:38:13;5.70;;;2.03;;
562;SDS011;266;49.514;8.294;2023-12-20T13:40:42;4.50;;;1.90;;
562;SDS011;266;49.514;8.294;2023-12-20T13:43:10;4.97;;;2.00;;
562;SDS011;266;49.514;8.294;2023-12-20T13:45:39;1.37;;;1.27;;
562;SDS011;266;49.514;8.294;2023-12-20T13:48:07;2.90;;;1.90;;
562;SDS011;266;49.514;8.294;2023-12-20T13:50:35;2.60;;;1.70;;
562;SDS011;266;49.514;8.294;2023-12-20T13:53:03;4.10;;;1.90;;
562;SDS011;266;49.514;8.294;2023-12-20T13:55:31;3.07;;;1.57;;
562;SDS011;266;49.514;8.294;2023-12-20T13:58:04;2.77;;;1.50;;
562;SDS011;266;49.514;8.294;2023-12-20T14:00:32;1.70;;;1.60;;
562;SDS011;266;49.514;8.294;2023-12-20T14:03:00;2.57;;;1.60;;
562;SDS011;266;49.514;8.294;2023-12-20T14:05:28;1.73;;;1.60;;
562;SDS011;266;49.514;8.294;2023-12-20T14:07:56;2.10;;;1.37;;
562;SDS011;266;49.514;8.294;2023-12-20T14:10:24;2.87;;;1.43;;
562;SDS011;266;49.514;8.294;2023-12-20T14:12:53;2.27;;;1.60;;
562;SDS011;266;49.514;8.294;2023-12-20T14:15:23;3.50;;;1.70;;
562;SDS011;266;49.514;8.294;2023-12-20T14:17:52;1.53;;;1.43;;
562;SDS011;266;49.514;8.294;2023-12-20T14:20:21;7.10;;;1.50;;
562;SDS011;266;49.514;8.294;2023-12-20T14:22:49;2.40;;;1.47;;
562;SDS011;266;49.514;8.294;2023-12-20T14:25:17;1.30;;;1.20;;
562;SDS011;266;49.514;8.294;2023-12-20T14:27:45;3.20;;;1.47;;
562;SDS011;266;49.514;8.294;2023-12-20T14:30:13;1.57;;;1.30;;
562;SDS011;266;49.514;8.294;2023-12-20T14:32:44;2.90;;;1.73;;
562;SDS011;266;49.514;8.294;2023-12-20T14:35:14;1.77;;;1.27;;
562;SDS011;266;49.514;8.294;2023-12-20T14:37:42;1.63;;;1.10;;
562;SDS011;266;49.514;8.294;2023-12-20T14:40:12;4.60;;;1.93;;
562;SDS011;266;49.514;8.294;2023-12-20T14:42:42;1.87;;;1.67;;
562;SDS011;266;49.514;8.294;2023-12-20T14:45:10;2.87;;;1.67;;
562;SDS011;266;49.514;8.294;2023-12-20T14:47:40;2.07;;;1.20;;
562;SDS011;266;49.514;8.294;2023-12-20T14:50:10;2.20;;;1.57;;
562;SDS011;266;49.514;8.294;2023-12-20T14:52:44;5.73;;;1.70;;
562;SDS011;266;49.514;8.294;2023-12-20T14:55:12;2.17;;;1.83;;
562;SDS011;266;49.514;8.294;2023-12-20T14:57:40;4.20;;;1.80;;
562;SDS011;266;49.514;8.294;2023-12-20T15:00:08;2.57;;;1.63;;
562;SDS011;266;49.514;8.294;2023-12-20T15:02:38;1.53;;;1.43;;
562;SDS011;266;49.514;8.294;2023-12-20T15:05:06;2.80;;;1.60;;
562;SDS011;266;49.514;8.294;2023-12-20T15:07:36;4.00;;;3.17;;
562;SDS011;266;49.514;8.294;2023-12-20T15:10:04;4.97;;;1.93;;
562;SDS011;266;49.514;8.294;2023-12-20T15:12:32;1.83;;;1.50;;
562;SDS011;266;49.514;8.294;2023-12-20T15:15:00;5.73;;;3.40;;
562;SDS011;266;49.514;8.294;2023-12-20T15:17:28;9.03;;;4.73;;
562;SDS011;266;49.514;8.294;2023-12-20T15:19:56;2.93;;;1.93;;
562;SDS011;266;49.514;8.294;2023-12-20T15:22:24;2.53;;;2.10;;
562;SDS011;266;49.514;8.294;2023-12-20T15:24:54;2.40;;;2.00;;
562;SDS011;266;49.514;8.294;2023-12-20T15:27:22;2.90;;;2.40;;
562;SDS011;266;49.514;8.294;2023-12-20T15:29:51;4.83;;;2.70;;
562;SDS011;266;49.514;8.294;2023-12-20T15:32:19;7.43;;;3.03;;
562;SDS011;266;49.514;8.294;2023-12-20T15:34:47;3.90;;;2.63;;
562;SDS011;266;49.514;8.294;2023-12-20T15:37:15;4.07;;;2.77;;
562;SDS011;266;49.514;8.294;2023-12-20T15:39:43;3.07;;;1.97;;
562;SDS011;266;49.514;8.294;2023-12-20T15:42:12;3.10;;;2.00;;
562;SDS011;266;49.514;8.294;2023-12-20T15:44:40;4.40;;;2.70;;
562;SDS011;266;49.514;8.294;2023-12-20T15:47:08;2.53;;;1.93;;
562;SDS011;266;49.514;8.294;2023-12-20T15:49:36;3.80;;;2.37;;
562;SDS011;266;49.514;8.294;2023-12-20T15:52:04;3.93;;;2.83;;
562;SDS011;266;49.514;8.294;2023-12-20T15:54:32;3.03;;;2.30;;